Portada
METAR-TAF:

METAR-TAF

Aeroports :

Txeboksari, Rússia

latitud: 56-05-24N, longitud: 047-20-50E, altitud: 171 m

Observació

L'informe es va fer fa 22 minuts, a les 00:30 UTC
Vent 4 kt del Sud
Temperatura 14°C
Humitat 100%
Pressió 1015 hPa
Visibilitat: 9000 m
Núvols disperses a una alçada de 4000 ft, Cumulonimbus.

METAR: UWKS 060030Z 19002MPS 9000 SCT040CB 14/14 Q1015 R24/290250 NOSIG RMK QFE747

Hora: 03:52 (00:52 UTC)

Pronòstic

L'informe es va fer fa 2 hores i 10 minuts, a les 22:42 UTC
Pronòstic vàlid del 06 a les 00 UTC al 06 a les 09 UTC
Vent 6 kt del Sud amb ràfegues de 16 kt
Visibilitat: 4000 m
Núvols disperses a una alçada de 700 ft
Cel ennuvolat a una alçada de 1600 ft, Cumulonimbus.
xàfecs de pluja, boirina
Temporalment
l' 06 a les 00 UTC al 06 a les 06 UTC
Visibilitat: 0400 m
a una alçada de 200 ft
boira

TAF: UWKS 052242Z 0600/0609 17003G08MPS 4000 -SHRA BR SCT007 BKN016CB TX18/0609Z TN13/0601Z TEMPO 0600/0606 0400 FG VV002

Observacions i pronòstics meteorològics de més de 4000 aeroports (METAR i TAF).

Les estacions disponibles són els punts grocs i vermells al mapa.

Posi el ratolí al punt desitjat per veure el nom de l'estació.

Feu clic per veure les observacions i els pronòstics meteorològics.

Per canviar el mapa: feu clic els botons verds amb una creu de color negre per apropar; al botó verd amb un guió per allunyar la imatge; o en les fletxes verdes per a mapes adjacents.


METAR-TAF: